sensor_id;sensor_type;location;lat;lon;timestamp;P1;durP1;ratioP1;P2;durP2;ratioP2
30337;SDS011;17143;51.888;5.408;2022-10-18T00:01:02;6.20;;;5.27;;
30337;SDS011;17143;51.888;5.408;2022-10-18T00:16:04;9.33;;;6.03;;
30337;SDS011;17143;51.888;5.408;2022-10-18T00:31:13;5.53;;;4.50;;
30337;SDS011;17143;51.888;5.408;2022-10-18T00:46:16;33.70;;;6.97;;
30337;SDS011;17143;51.888;5.408;2022-10-18T01:01:17;8.73;;;6.00;;
30337;SDS011;17143;51.888;5.408;2022-10-18T01:16:20;9.03;;;5.23;;
30337;SDS011;17143;51.888;5.408;2022-10-18T01:31:25;6.57;;;5.17;;
30337;SDS011;17143;51.888;5.408;2022-10-18T01:46:33;8.50;;;4.90;;
30337;SDS011;17143;51.888;5.408;2022-10-18T02:01:39;6.33;;;4.20;;
30337;SDS011;17143;51.888;5.408;2022-10-18T02:16:49;5.97;;;3.50;;
30337;SDS011;17143;51.888;5.408;2022-10-18T02:31:54;8.67;;;3.93;;
30337;SDS011;17143;51.888;5.408;2022-10-18T02:47:01;11.83;;;3.63;;
30337;SDS011;17143;51.888;5.408;2022-10-18T03:02:04;8.57;;;3.30;;
30337;SDS011;17143;51.888;5.408;2022-10-18T03:17:06;2.87;;;2.67;;
30337;SDS011;17143;51.888;5.408;2022-10-18T03:32:08;3.53;;;3.23;;
30337;SDS011;17143;51.888;5.408;2022-10-18T03:47:10;18.63;;;3.90;;
30337;SDS011;17143;51.888;5.408;2022-10-18T04:02:12;6.27;;;3.00;;
30337;SDS011;17143;51.888;5.408;2022-10-18T04:17:14;6.20;;;2.97;;
30337;SDS011;17143;51.888;5.408;2022-10-18T04:32:16;7.67;;;3.10;;
30337;SDS011;17143;51.888;5.408;2022-10-18T04:47:18;3.20;;;2.90;;
30337;SDS011;17143;51.888;5.408;2022-10-18T05:02:20;8.50;;;2.63;;
30337;SDS011;17143;51.888;5.408;2022-10-18T05:17:22;2.43;;;2.30;;
30337;SDS011;17143;51.888;5.408;2022-10-18T05:32:24;7.10;;;2.60;;
30337;SDS011;17143;51.888;5.408;2022-10-18T05:47:26;2.70;;;2.50;;
30337;SDS011;17143;51.888;5.408;2022-10-18T06:02:28;16.20;;;3.13;;
30337;SDS011;17143;51.888;5.408;2022-10-18T06:17:30;9.10;;;3.03;;
30337;SDS011;17143;51.888;5.408;2022-10-18T06:32:32;17.77;;;3.80;;
30337;SDS011;17143;51.888;5.408;2022-10-18T06:47:34;14.33;;;2.30;;
30337;SDS011;17143;51.888;5.408;2022-10-18T07:02:36;2.13;;;1.73;;
30337;SDS011;17143;51.888;5.408;2022-10-18T07:17:38;26.20;;;1.90;;
30337;SDS011;17143;51.888;5.408;2022-10-18T07:32:40;22.13;;;2.23;;
30337;SDS011;17143;51.888;5.408;2022-10-18T07:47:42;9.67;;;1.80;;
30337;SDS011;17143;51.888;5.408;2022-10-18T08:02:44;6.43;;;1.83;;
30337;SDS011;17143;51.888;5.408;2022-10-18T08:17:46;7.93;;;2.70;;
30337;SDS011;17143;51.888;5.408;2022-10-18T08:32:48;7.10;;;2.20;;
30337;SDS011;17143;51.888;5.408;2022-10-18T08:47:50;6.40;;;2.70;;
30337;SDS011;17143;51.888;5.408;2022-10-18T09:02:57;4.63;;;2.33;;
30337;SDS011;17143;51.888;5.408;2022-10-18T09:18:18;7.30;;;1.60;;
30337;SDS011;17143;51.888;5.408;2022-10-18T09:33:44;6.70;;;1.47;;
30337;SDS011;17143;51.888;5.408;2022-10-18T09:48:52;6.70;;;1.70;;
30337;SDS011;17143;51.888;5.408;2022-10-18T10:03:58;5.33;;;1.60;;
30337;SDS011;17143;51.888;5.408;2022-10-18T10:19:00;7.93;;;1.77;;
30337;SDS011;17143;51.888;5.408;2022-10-18T10:34:03;7.47;;;1.87;;
30337;SDS011;17143;51.888;5.408;2022-10-18T10:49:12;5.70;;;1.20;;
30337;SDS011;17143;51.888;5.408;2022-10-18T11:04:26;6.83;;;1.53;;
30337;SDS011;17143;51.888;5.408;2022-10-18T11:19:31;4.70;;;1.30;;
30337;SDS011;17143;51.888;5.408;2022-10-18T11:34:44;4.60;;;1.03;;
30337;SDS011;17143;51.888;5.408;2022-10-18T11:49:59;5.27;;;1.10;;
30337;SDS011;17143;51.888;5.408;2022-10-18T12:05:08;5.30;;;1.33;;
30337;SDS011;17143;51.888;5.408;2022-10-18T12:20:14;5.07;;;1.27;;
30337;SDS011;17143;51.888;5.408;2022-10-18T12:35:20;5.80;;;1.20;;
30337;SDS011;17143;51.888;5.408;2022-10-18T12:50:25;6.50;;;0.87;;
30337;SDS011;17143;51.888;5.408;2022-10-18T13:05:54;7.17;;;1.80;;
30337;SDS011;17143;51.888;5.408;2022-10-18T13:21:00;6.53;;;1.00;;
30337;SDS011;17143;51.888;5.408;2022-10-18T13:36:22;4.20;;;0.80;;
30337;SDS011;17143;51.888;5.408;2022-10-18T13:51:36;3.07;;;0.60;;
30337;SDS011;17143;51.888;5.408;2022-10-18T14:06:49;4.43;;;0.70;;
30337;SDS011;17143;51.888;5.408;2022-10-18T14:21:55;4.23;;;0.90;;
30337;SDS011;17143;51.888;5.408;2022-10-18T14:37:04;3.37;;;0.87;;
30337;SDS011;17143;51.888;5.408;2022-10-18T14:52:08;3.73;;;0.93;;
30337;SDS011;17143;51.888;5.408;2022-10-18T15:07:14;1.83;;;0.43;;
30337;SDS011;17143;51.888;5.408;2022-10-18T15:22:21;2.07;;;0.60;;
30337;SDS011;17143;51.888;5.408;2022-10-18T15:37:29;1.57;;;0.70;;
30337;SDS011;17143;51.888;5.408;2022-10-18T15:52:36;5.27;;;1.17;;
30337;SDS011;17143;51.888;5.408;2022-10-18T16:07:39;9.10;;;0.77;;
30337;SDS011;17143;51.888;5.408;2022-10-18T16:22:41;5.77;;;0.97;;
30337;SDS011;17143;51.888;5.408;2022-10-18T16:37:43;6.43;;;1.30;;
30337;SDS011;17143;51.888;5.408;2022-10-18T16:52:45;5.20;;;1.30;;
30337;SDS011;17143;51.888;5.408;2022-10-18T17:07:47;5.87;;;1.43;;
30337;SDS011;17143;51.888;5.408;2022-10-18T17:22:49;4.23;;;1.30;;
30337;SDS011;17143;51.888;5.408;2022-10-18T17:37:51;8.93;;;3.07;;
30337;SDS011;17143;51.888;5.408;2022-10-18T17:52:53;7.60;;;2.60;;
30337;SDS011;17143;51.888;5.408;2022-10-18T18:07:55;9.57;;;3.80;;
30337;SDS011;17143;51.888;5.408;2022-10-18T18:22:57;10.30;;;3.20;;
30337;SDS011;17143;51.888;5.408;2022-10-18T18:37:59;12.07;;;3.20;;
30337;SDS011;17143;51.888;5.408;2022-10-18T18:53:01;11.60;;;3.50;;
30337;SDS011;17143;51.888;5.408;2022-10-18T19:08:03;12.00;;;3.73;;
30337;SDS011;17143;51.888;5.408;2022-10-18T19:23:06;10.00;;;4.37;;
30337;SDS011;17143;51.888;5.408;2022-10-18T19:38:08;11.37;;;3.23;;
30337;SDS011;17143;51.888;5.408;2022-10-18T19:53:10;7.07;;;2.37;;
30337;SDS011;17143;51.888;5.408;2022-10-18T20:08:12;10.90;;;2.67;;
30337;SDS011;17143;51.888;5.408;2022-10-18T20:23:14;6.57;;;2.87;;
30337;SDS011;17143;51.888;5.408;2022-10-18T20:38:16;8.73;;;3.40;;
30337;SDS011;17143;51.888;5.408;2022-10-18T20:53:18;7.53;;;3.37;;
30337;SDS011;17143;51.888;5.408;2022-10-18T21:08:20;13.03;;;3.67;;
30337;SDS011;17143;51.888;5.408;2022-10-18T21:23:22;12.33;;;3.00;;
30337;SDS011;17143;51.888;5.408;2022-10-18T21:38:24;7.80;;;3.00;;
30337;SDS011;17143;51.888;5.408;2022-10-18T21:53:26;8.80;;;3.40;;
30337;SDS011;17143;51.888;5.408;2022-10-18T22:08:28;6.57;;;2.93;;
30337;SDS011;17143;51.888;5.408;2022-10-18T22:23:31;7.53;;;2.87;;
30337;SDS011;17143;51.888;5.408;2022-10-18T22:38:33;11.30;;;3.80;;
30337;SDS011;17143;51.888;5.408;2022-10-18T22:53:36;6.60;;;3.67;;
30337;SDS011;17143;51.888;5.408;2022-10-18T23:08:39;5.93;;;3.70;;
30337;SDS011;17143;51.888;5.408;2022-10-18T23:23:41;6.27;;;3.23;;
30337;SDS011;17143;51.888;5.408;2022-10-18T23:38:43;7.73;;;3.50;;
30337;SDS011;17143;51.888;5.408;2022-10-18T23:53:45;8.07;;;3.97;;
